sensor_id;sensor_type;location;lat;lon;timestamp;P1;durP1;ratioP1;P2;durP2;ratioP2
22754;SDS011;11544;42.020;23.094;2024-01-07T00:00:08;2.22;;;1.33;;
22754;SDS011;11544;42.020;23.094;2024-01-07T00:02:35;2.38;;;1.20;;
22754;SDS011;11544;42.020;23.094;2024-01-07T00:05:04;3.17;;;1.48;;
22754;SDS011;11544;42.020;23.094;2024-01-07T00:07:31;3.45;;;1.20;;
22754;SDS011;11544;42.020;23.094;2024-01-07T00:09:58;2.70;;;1.00;;
22754;SDS011;11544;42.020;23.094;2024-01-07T00:12:25;2.42;;;1.40;;
22754;SDS011;11544;42.020;23.094;2024-01-07T00:14:51;6.90;;;1.80;;
22754;SDS011;11544;42.020;23.094;2024-01-07T00:17:18;2.13;;;1.50;;
22754;SDS011;11544;42.020;23.094;2024-01-07T00:19:45;3.55;;;1.48;;
22754;SDS011;11544;42.020;23.094;2024-01-07T00:22:12;3.05;;;1.30;;
22754;SDS011;11544;42.020;23.094;2024-01-07T00:24:39;2.83;;;1.10;;
22754;SDS011;11544;42.020;23.094;2024-01-07T00:27:06;4.38;;;1.40;;
22754;SDS011;11544;42.020;23.094;2024-01-07T00:29:35;1.30;;;0.80;;
22754;SDS011;11544;42.020;23.094;2024-01-07T00:32:02;2.42;;;1.10;;
22754;SDS011;11544;42.020;23.094;2024-01-07T00:34:29;1.67;;;1.02;;
22754;SDS011;11544;42.020;23.094;2024-01-07T00:36:56;2.42;;;1.27;;
22754;SDS011;11544;42.020;23.094;2024-01-07T00:39:23;1.85;;;1.15;;
22754;SDS011;11544;42.020;23.094;2024-01-07T00:41:50;4.50;;;1.52;;
22754;SDS011;11544;42.020;23.094;2024-01-07T00:44:17;1.23;;;0.95;;
22754;SDS011;11544;42.020;23.094;2024-01-07T00:46:44;4.85;;;1.50;;
22754;SDS011;11544;42.020;23.094;2024-01-07T00:49:14;3.70;;;2.00;;
22754;SDS011;11544;42.020;23.094;2024-01-07T00:51:42;8.02;;;2.35;;
22754;SDS011;11544;42.020;23.094;2024-01-07T00:54:09;4.50;;;1.95;;
22754;SDS011;11544;42.020;23.094;2024-01-07T00:56:35;4.13;;;1.88;;
22754;SDS011;11544;42.020;23.094;2024-01-07T00:59:03;5.07;;;1.85;;
22754;SDS011;11544;42.020;23.094;2024-01-07T01:04:05;5.18;;;2.35;;
22754;SDS011;11544;42.020;23.094;2024-01-07T01:06:32;4.47;;;2.20;;
22754;SDS011;11544;42.020;23.094;2024-01-07T01:08:59;3.58;;;2.20;;
22754;SDS011;11544;42.020;23.094;2024-01-07T01:11:26;7.60;;;2.40;;
22754;SDS011;11544;42.020;23.094;2024-01-07T01:13:53;6.03;;;2.67;;
22754;SDS011;11544;42.020;23.094;2024-01-07T01:16:20;5.20;;;2.40;;
22754;SDS011;11544;42.020;23.094;2024-01-07T01:18:50;3.80;;;2.30;;
22754;SDS011;11544;42.020;23.094;2024-01-07T01:21:17;8.55;;;2.10;;
22754;SDS011;11544;42.020;23.094;2024-01-07T01:23:45;6.97;;;2.58;;
22754;SDS011;11544;42.020;23.094;2024-01-07T01:26:13;4.45;;;2.60;;
22754;SDS011;11544;42.020;23.094;2024-01-07T01:28:40;4.85;;;2.58;;
22754;SDS011;11544;42.020;23.094;2024-01-07T01:31:07;4.05;;;2.20;;
22754;SDS011;11544;42.020;23.094;2024-01-07T01:33:34;6.47;;;2.28;;
22754;SDS011;11544;42.020;23.094;2024-01-07T01:36:04;7.40;;;2.70;;
22754;SDS011;11544;42.020;23.094;2024-01-07T01:38:32;5.22;;;2.20;;
22754;SDS011;11544;42.020;23.094;2024-01-07T01:40:59;6.45;;;2.13;;
22754;SDS011;11544;42.020;23.094;2024-01-07T01:43:26;3.78;;;1.80;;
22754;SDS011;11544;42.020;23.094;2024-01-07T01:45:54;3.67;;;2.17;;
22754;SDS011;11544;42.020;23.094;2024-01-07T01:48:22;4.70;;;2.40;;
22754;SDS011;11544;42.020;23.094;2024-01-07T01:50:52;6.68;;;3.47;;
22754;SDS011;11544;42.020;23.094;2024-01-07T01:53:20;7.57;;;2.80;;
22754;SDS011;11544;42.020;23.094;2024-01-07T01:55:47;7.82;;;3.33;;
22754;SDS011;11544;42.020;23.094;2024-01-07T01:58:14;6.53;;;2.60;;
22754;SDS011;11544;42.020;23.094;2024-01-07T02:00:45;9.02;;;2.08;;
22754;SDS011;11544;42.020;23.094;2024-01-07T02:03:12;4.85;;;2.50;;
22754;SDS011;11544;42.020;23.094;2024-01-07T02:05:39;1.85;;;0.80;;
22754;SDS011;11544;42.020;23.094;2024-01-07T02:08:06;0.32;;;0.20;;
22754;SDS011;11544;42.020;23.094;2024-01-07T02:10:33;1.35;;;0.38;;
22754;SDS011;11544;42.020;23.094;2024-01-07T02:13:06;2.90;;;0.30;;
22754;SDS011;11544;42.020;23.094;2024-01-07T02:15:33;2.05;;;0.30;;
22754;SDS011;11544;42.020;23.094;2024-01-07T02:18:01;1.27;;;0.20;;
22754;SDS011;11544;42.020;23.094;2024-01-07T02:20:28;2.40;;;0.43;;
22754;SDS011;11544;42.020;23.094;2024-01-07T02:22:55;2.15;;;0.30;;
22754;SDS011;11544;42.020;23.094;2024-01-07T02:25:24;2.88;;;0.73;;
22754;SDS011;11544;42.020;23.094;2024-01-07T02:27:51;0.30;;;0.20;;
22754;SDS011;11544;42.020;23.094;2024-01-07T02:30:18;0.98;;;0.52;;
22754;SDS011;11544;42.020;23.094;2024-01-07T02:32:45;2.33;;;0.47;;
22754;SDS011;11544;42.020;23.094;2024-01-07T02:35:12;2.85;;;0.60;;
22754;SDS011;11544;42.020;23.094;2024-01-07T02:37:39;2.78;;;0.40;;
22754;SDS011;11544;42.020;23.094;2024-01-07T02:40:06;3.20;;;0.80;;
22754;SDS011;11544;42.020;23.094;2024-01-07T02:42:33;1.73;;;0.60;;
22754;SDS011;11544;42.020;23.094;2024-01-07T02:45:00;2.30;;;0.65;;
22754;SDS011;11544;42.020;23.094;2024-01-07T02:47:28;2.63;;;0.95;;
22754;SDS011;11544;42.020;23.094;2024-01-07T02:49:55;2.45;;;1.25;;
22754;SDS011;11544;42.020;23.094;2024-01-07T02:52:22;2.55;;;0.68;;
22754;SDS011;11544;42.020;23.094;2024-01-07T02:54:49;1.75;;;0.65;;
22754;SDS011;11544;42.020;23.094;2024-01-07T02:57:16;1.42;;;0.50;;
22754;SDS011;11544;42.020;23.094;2024-01-07T02:59:43;0.77;;;0.45;;
22754;SDS011;11544;42.020;23.094;2024-01-07T03:02:09;3.70;;;1.42;;
22754;SDS011;11544;42.020;23.094;2024-01-07T03:04:36;5.80;;;2.25;;
22754;SDS011;11544;42.020;23.094;2024-01-07T03:07:03;3.97;;;1.88;;
22754;SDS011;11544;42.020;23.094;2024-01-07T03:09:30;3.95;;;1.55;;
22754;SDS011;11544;42.020;23.094;2024-01-07T03:11:57;2.40;;;0.75;;
22754;SDS011;11544;42.020;23.094;2024-01-07T03:14:24;6.05;;;1.90;;
22754;SDS011;11544;42.020;23.094;2024-01-07T03:16:51;7.72;;;2.00;;
22754;SDS011;11544;42.020;23.094;2024-01-07T03:19:18;5.25;;;1.45;;
22754;SDS011;11544;42.020;23.094;2024-01-07T03:21:45;14.57;;;1.75;;
22754;SDS011;11544;42.020;23.094;2024-01-07T03:24:11;4.85;;;1.55;;
22754;SDS011;11544;42.020;23.094;2024-01-07T03:26:38;4.50;;;1.77;;
22754;SDS011;11544;42.020;23.094;2024-01-07T03:29:05;5.45;;;2.30;;
22754;SDS011;11544;42.020;23.094;2024-01-07T03:31:32;6.07;;;2.10;;
22754;SDS011;11544;42.020;23.094;2024-01-07T03:33:59;4.03;;;1.67;;
22754;SDS011;11544;42.020;23.094;2024-01-07T03:36:27;3.88;;;1.73;;
22754;SDS011;11544;42.020;23.094;2024-01-07T03:38:53;3.75;;;1.92;;
22754;SDS011;11544;42.020;23.094;2024-01-07T03:41:21;2.97;;;1.83;;
22754;SDS011;11544;42.020;23.094;2024-01-07T03:43:48;5.25;;;1.90;;
22754;SDS011;11544;42.020;23.094;2024-01-07T03:46:15;5.55;;;1.60;;
22754;SDS011;11544;42.020;23.094;2024-01-07T03:48:43;5.13;;;4.00;;
22754;SDS011;11544;42.020;23.094;2024-01-07T03:51:10;8.35;;;3.78;;
22754;SDS011;11544;42.020;23.094;2024-01-07T03:53:37;4.13;;;2.10;;
22754;SDS011;11544;42.020;23.094;2024-01-07T03:56:04;4.97;;;2.33;;
22754;SDS011;11544;42.020;23.094;2024-01-07T03:58:32;3.92;;;2.20;;
22754;SDS011;11544;42.020;23.094;2024-01-07T04:00:59;3.72;;;2.13;;
22754;SDS011;11544;42.020;23.094;2024-01-07T04:03:26;3.72;;;1.40;;
22754;SDS011;11544;42.020;23.094;2024-01-07T04:05:53;3.35;;;2.15;;
22754;SDS011;11544;42.020;23.094;2024-01-07T04:08:20;3.50;;;1.45;;
22754;SDS011;11544;42.020;23.094;2024-01-07T04:10:47;4.68;;;3.03;;
22754;SDS011;11544;42.020;23.094;2024-01-07T04:13:14;10.15;;;3.90;;
22754;SDS011;11544;42.020;23.094;2024-01-07T04:15:41;10.60;;;5.18;;
22754;SDS011;11544;42.020;23.094;2024-01-07T04:18:08;42.03;;;12.43;;
22754;SDS011;11544;42.020;23.094;2024-01-07T04:20:35;22.52;;;9.15;;
22754;SDS011;11544;42.020;23.094;2024-01-07T04:23:02;21.27;;;6.47;;
22754;SDS011;11544;42.020;23.094;2024-01-07T04:25:29;18.58;;;6.60;;
22754;SDS011;11544;42.020;23.094;2024-01-07T04:27:55;4.88;;;2.53;;
22754;SDS011;11544;42.020;23.094;2024-01-07T04:30:22;7.97;;;3.47;;
22754;SDS011;11544;42.020;23.094;2024-01-07T04:32:49;10.43;;;5.15;;
22754;SDS011;11544;42.020;23.094;2024-01-07T04:35:16;9.20;;;4.60;;
22754;SDS011;11544;42.020;23.094;2024-01-07T04:37:43;10.27;;;5.25;;
22754;SDS011;11544;42.020;23.094;2024-01-07T04:40:10;9.63;;;5.07;;
22754;SDS011;11544;42.020;23.094;2024-01-07T04:42:37;8.90;;;4.40;;
22754;SDS011;11544;42.020;23.094;2024-01-07T04:45:04;3.70;;;1.75;;
22754;SDS011;11544;42.020;23.094;2024-01-07T04:47:32;2.25;;;1.42;;
22754;SDS011;11544;42.020;23.094;2024-01-07T04:50:03;1.80;;;1.15;;
22754;SDS011;11544;42.020;23.094;2024-01-07T04:52:30;1.10;;;0.85;;
22754;SDS011;11544;42.020;23.094;2024-01-07T04:54:58;1.00;;;0.70;;
22754;SDS011;11544;42.020;23.094;2024-01-07T04:57:24;0.98;;;0.65;;
22754;SDS011;11544;42.020;23.094;2024-01-07T04:59:51;2.80;;;0.68;;
22754;SDS011;11544;42.020;23.094;2024-01-07T05:02:18;1.45;;;0.47;;
22754;SDS011;11544;42.020;23.094;2024-01-07T05:04:46;0.95;;;0.60;;
22754;SDS011;11544;42.020;23.094;2024-01-07T05:07:13;1.70;;;0.70;;
22754;SDS011;11544;42.020;23.094;2024-01-07T05:09:40;1.67;;;0.88;;
22754;SDS011;11544;42.020;23.094;2024-01-07T05:12:08;0.70;;;0.55;;
22754;SDS011;11544;42.020;23.094;2024-01-07T05:14:35;0.60;;;0.45;;
22754;SDS011;11544;42.020;23.094;2024-01-07T05:17:03;1.48;;;0.40;;
22754;SDS011;11544;42.020;23.094;2024-01-07T05:19:30;0.90;;;0.50;;
22754;SDS011;11544;42.020;23.094;2024-01-07T05:21:58;1.05;;;0.82;;
22754;SDS011;11544;42.020;23.094;2024-01-07T05:24:25;1.23;;;0.90;;
22754;SDS011;11544;42.020;23.094;2024-01-07T05:26:52;1.65;;;0.90;;
22754;SDS011;11544;42.020;23.094;2024-01-07T05:29:19;2.53;;;1.13;;
22754;SDS011;11544;42.020;23.094;2024-01-07T05:31:46;2.13;;;1.48;;
22754;SDS011;11544;42.020;23.094;2024-01-07T05:34:14;3.15;;;1.02;;
22754;SDS011;11544;42.020;23.094;2024-01-07T05:36:41;1.90;;;0.73;;
22754;SDS011;11544;42.020;23.094;2024-01-07T05:39:08;1.65;;;0.50;;
22754;SDS011;11544;42.020;23.094;2024-01-07T05:41:36;1.13;;;0.70;;
22754;SDS011;11544;42.020;23.094;2024-01-07T05:44:06;1.58;;;0.90;;
22754;SDS011;11544;42.020;23.094;2024-01-07T05:46:34;4.05;;;1.88;;
22754;SDS011;11544;42.020;23.094;2024-01-07T05:49:04;1.25;;;0.82;;
22754;SDS011;11544;42.020;23.094;2024-01-07T05:51:32;3.28;;;1.77;;
22754;SDS011;11544;42.020;23.094;2024-01-07T05:53:59;3.30;;;1.65;;
22754;SDS011;11544;42.020;23.094;2024-01-07T05:56:26;2.78;;;1.90;;
22754;SDS011;11544;42.020;23.094;2024-01-07T05:58:52;1.35;;;1.05;;
22754;SDS011;11544;42.020;23.094;2024-01-07T06:01:19;2.92;;;1.23;;
22754;SDS011;11544;42.020;23.094;2024-01-07T06:03:47;2.10;;;1.40;;
22754;SDS011;11544;42.020;23.094;2024-01-07T06:06:14;3.75;;;1.92;;
22754;SDS011;11544;42.020;23.094;2024-01-07T06:08:42;6.40;;;2.38;;
22754;SDS011;11544;42.020;23.094;2024-01-07T06:11:09;6.65;;;3.08;;
22754;SDS011;11544;42.020;23.094;2024-01-07T06:13:38;6.53;;;2.58;;
22754;SDS011;11544;42.020;23.094;2024-01-07T06:16:05;5.85;;;1.85;;
22754;SDS011;11544;42.020;23.094;2024-01-07T06:18:32;3.60;;;1.35;;
22754;SDS011;11544;42.020;23.094;2024-01-07T06:21:03;2.33;;;1.42;;
22754;SDS011;11544;42.020;23.094;2024-01-07T06:23:33;2.00;;;1.17;;
22754;SDS011;11544;42.020;23.094;2024-01-07T06:26:00;3.53;;;1.58;;
22754;SDS011;11544;42.020;23.094;2024-01-07T06:28:29;3.03;;;1.60;;
22754;SDS011;11544;42.020;23.094;2024-01-07T06:30:56;3.75;;;0.98;;
22754;SDS011;11544;42.020;23.094;2024-01-07T06:33:26;4.18;;;1.13;;
22754;SDS011;11544;42.020;23.094;2024-01-07T06:35:53;2.22;;;0.90;;
22754;SDS011;11544;42.020;23.094;2024-01-07T06:38:20;6.07;;;1.35;;
22754;SDS011;11544;42.020;23.094;2024-01-07T06:40:47;3.22;;;1.20;;
22754;SDS011;11544;42.020;23.094;2024-01-07T06:43:14;2.13;;;1.20;;
22754;SDS011;11544;42.020;23.094;2024-01-07T06:45:41;4.13;;;1.38;;
22754;SDS011;11544;42.020;23.094;2024-01-07T06:48:10;5.00;;;1.50;;
22754;SDS011;11544;42.020;23.094;2024-01-07T06:50:37;3.42;;;1.85;;
22754;SDS011;11544;42.020;23.094;2024-01-07T06:53:03;10.60;;;2.15;;
22754;SDS011;11544;42.020;23.094;2024-01-07T06:55:30;3.47;;;1.25;;
22754;SDS011;11544;42.020;23.094;2024-01-07T06:57:57;3.85;;;1.48;;
22754;SDS011;11544;42.020;23.094;2024-01-07T07:00:24;4.53;;;1.67;;
22754;SDS011;11544;42.020;23.094;2024-01-07T07:02:51;3.50;;;1.55;;
22754;SDS011;11544;42.020;23.094;2024-01-07T07:05:18;4.10;;;1.73;;
22754;SDS011;11544;42.020;23.094;2024-01-07T07:07:45;3.05;;;1.70;;
22754;SDS011;11544;42.020;23.094;2024-01-07T07:10:12;4.93;;;1.95;;
22754;SDS011;11544;42.020;23.094;2024-01-07T07:12:39;3.53;;;1.48;;
22754;SDS011;11544;42.020;23.094;2024-01-07T07:15:06;1.92;;;1.20;;
22754;SDS011;11544;42.020;23.094;2024-01-07T07:17:39;3.90;;;2.10;;
22754;SDS011;11544;42.020;23.094;2024-01-07T07:20:06;6.75;;;2.72;;
22754;SDS011;11544;42.020;23.094;2024-01-07T07:22:33;5.55;;;2.70;;
22754;SDS011;11544;42.020;23.094;2024-01-07T07:25:01;5.57;;;2.08;;
22754;SDS011;11544;42.020;23.094;2024-01-07T07:27:29;3.83;;;1.38;;
22754;SDS011;11544;42.020;23.094;2024-01-07T07:29:55;3.30;;;1.33;;
22754;SDS011;11544;42.020;23.094;2024-01-07T07:32:23;4.60;;;1.70;;
22754;SDS011;11544;42.020;23.094;2024-01-07T07:34:50;6.53;;;2.80;;
22754;SDS011;11544;42.020;23.094;2024-01-07T07:37:17;8.15;;;2.75;;
22754;SDS011;11544;42.020;23.094;2024-01-07T07:39:46;6.03;;;2.33;;
22754;SDS011;11544;42.020;23.094;2024-01-07T07:42:13;6.28;;;2.55;;
22754;SDS011;11544;42.020;23.094;2024-01-07T07:44:40;5.97;;;2.20;;
22754;SDS011;11544;42.020;23.094;2024-01-07T07:47:08;8.35;;;2.38;;
22754;SDS011;11544;42.020;23.094;2024-01-07T07:49:38;9.20;;;2.40;;
22754;SDS011;11544;42.020;23.094;2024-01-07T07:52:07;4.70;;;2.00;;
22754;SDS011;11544;42.020;23.094;2024-01-07T07:54:38;4.88;;;1.80;;
22754;SDS011;11544;42.020;23.094;2024-01-07T07:57:06;6.80;;;2.60;;
22754;SDS011;11544;42.020;23.094;2024-01-07T07:59:34;5.00;;;2.22;;
22754;SDS011;11544;42.020;23.094;2024-01-07T08:02:01;5.68;;;2.25;;
22754;SDS011;11544;42.020;23.094;2024-01-07T08:04:28;4.25;;;2.13;;
22754;SDS011;11544;42.020;23.094;2024-01-07T08:06:55;3.65;;;1.88;;
22754;SDS011;11544;42.020;23.094;2024-01-07T08:09:23;6.65;;;1.98;;
22754;SDS011;11544;42.020;23.094;2024-01-07T08:11:51;12.75;;;5.07;;
22754;SDS011;11544;42.020;23.094;2024-01-07T08:14:18;5.97;;;2.10;;
22754;SDS011;11544;42.020;23.094;2024-01-07T08:16:45;3.55;;;1.42;;
22754;SDS011;11544;42.020;23.094;2024-01-07T08:19:12;5.20;;;1.83;;
22754;SDS011;11544;42.020;23.094;2024-01-07T08:21:40;4.80;;;1.42;;
22754;SDS011;11544;42.020;23.094;2024-01-07T08:24:07;2.45;;;1.05;;
22754;SDS011;11544;42.020;23.094;2024-01-07T08:26:34;5.18;;;1.17;;
22754;SDS011;11544;42.020;23.094;2024-01-07T08:29:01;5.45;;;1.25;;
22754;SDS011;11544;42.020;23.094;2024-01-07T08:31:28;5.30;;;1.23;;
22754;SDS011;11544;42.020;23.094;2024-01-07T08:33:55;1.85;;;1.10;;
22754;SDS011;11544;42.020;23.094;2024-01-07T08:36:22;3.70;;;1.17;;
22754;SDS011;11544;42.020;23.094;2024-01-07T08:38:49;2.30;;;1.20;;
22754;SDS011;11544;42.020;23.094;2024-01-07T08:41:16;4.20;;;1.35;;
22754;SDS011;11544;42.020;23.094;2024-01-07T08:43:43;3.97;;;0.85;;
22754;SDS011;11544;42.020;23.094;2024-01-07T08:46:11;4.70;;;1.45;;
22754;SDS011;11544;42.020;23.094;2024-01-07T08:48:40;7.07;;;0.95;;
22754;SDS011;11544;42.020;23.094;2024-01-07T08:51:07;4.00;;;0.93;;
22754;SDS011;11544;42.020;23.094;2024-01-07T08:53:34;3.70;;;1.02;;
22754;SDS011;11544;42.020;23.094;2024-01-07T08:56:01;1.30;;;0.60;;
22754;SDS011;11544;42.020;23.094;2024-01-07T08:58:28;2.05;;;0.88;;
22754;SDS011;11544;42.020;23.094;2024-01-07T09:00:55;4.60;;;1.02;;
22754;SDS011;11544;42.020;23.094;2024-01-07T09:03:22;8.38;;;2.05;;
22754;SDS011;11544;42.020;23.094;2024-01-07T09:05:49;7.30;;;1.58;;
22754;SDS011;11544;42.020;23.094;2024-01-07T09:08:16;5.95;;;2.03;;
22754;SDS011;11544;42.020;23.094;2024-01-07T09:10:43;5.47;;;1.90;;
22754;SDS011;11544;42.020;23.094;2024-01-07T09:13:10;2.88;;;1.10;;
22754;SDS011;11544;42.020;23.094;2024-01-07T09:15:37;2.05;;;0.52;;
22754;SDS011;11544;42.020;23.094;2024-01-07T09:18:05;3.15;;;0.90;;
22754;SDS011;11544;42.020;23.094;2024-01-07T09:20:32;5.65;;;1.10;;
22754;SDS011;11544;42.020;23.094;2024-01-07T09:23:00;3.17;;;1.10;;
22754;SDS011;11544;42.020;23.094;2024-01-07T09:25:26;2.00;;;0.80;;
22754;SDS011;11544;42.020;23.094;2024-01-07T09:27:53;4.05;;;0.50;;
22754;SDS011;11544;42.020;23.094;2024-01-07T09:30:20;6.07;;;1.00;;
22754;SDS011;11544;42.020;23.094;2024-01-07T09:32:47;3.78;;;1.30;;
22754;SDS011;11544;42.020;23.094;2024-01-07T09:35:14;4.45;;;1.92;;
22754;SDS011;11544;42.020;23.094;2024-01-07T09:37:41;3.03;;;1.30;;
22754;SDS011;11544;42.020;23.094;2024-01-07T09:40:09;12.43;;;1.55;;
22754;SDS011;11544;42.020;23.094;2024-01-07T09:42:36;5.20;;;1.10;;
22754;SDS011;11544;42.020;23.094;2024-01-07T09:45:04;4.65;;;1.50;;
22754;SDS011;11544;42.020;23.094;2024-01-07T09:47:31;9.85;;;2.45;;
22754;SDS011;11544;42.020;23.094;2024-01-07T09:49:58;5.28;;;1.48;;
22754;SDS011;11544;42.020;23.094;2024-01-07T09:52:25;2.22;;;0.77;;
22754;SDS011;11544;42.020;23.094;2024-01-07T09:54:53;2.03;;;1.30;;
22754;SDS011;11544;42.020;23.094;2024-01-07T09:57:30;4.68;;;1.00;;
22754;SDS011;11544;42.020;23.094;2024-01-07T09:59:57;3.20;;;1.25;;
22754;SDS011;11544;42.020;23.094;2024-01-07T10:02:24;4.28;;;0.88;;
22754;SDS011;11544;42.020;23.094;2024-01-07T10:04:52;7.18;;;1.33;;
22754;SDS011;11544;42.020;23.094;2024-01-07T10:07:19;5.22;;;1.20;;
22754;SDS011;11544;42.020;23.094;2024-01-07T10:09:46;4.40;;;0.80;;
22754;SDS011;11544;42.020;23.094;2024-01-07T10:12:12;5.10;;;0.50;;
22754;SDS011;11544;42.020;23.094;2024-01-07T10:14:40;1.35;;;0.60;;
22754;SDS011;11544;42.020;23.094;2024-01-07T10:17:16;5.50;;;1.40;;
22754;SDS011;11544;42.020;23.094;2024-01-07T10:19:44;8.77;;;1.40;;
22754;SDS011;11544;42.020;23.094;2024-01-07T10:22:15;1.95;;;0.70;;
22754;SDS011;11544;42.020;23.094;2024-01-07T10:24:42;3.70;;;1.60;;
22754;SDS011;11544;42.020;23.094;2024-01-07T10:27:10;3.65;;;1.15;;
22754;SDS011;11544;42.020;23.094;2024-01-07T10:29:37;2.28;;;0.80;;
22754;SDS011;11544;42.020;23.094;2024-01-07T10:32:04;6.13;;;0.93;;
22754;SDS011;11544;42.020;23.094;2024-01-07T10:34:33;3.38;;;0.77;;
22754;SDS011;11544;42.020;23.094;2024-01-07T10:37:03;5.20;;;0.98;;
22754;SDS011;11544;42.020;23.094;2024-01-07T10:39:33;9.77;;;1.60;;
22754;SDS011;11544;42.020;23.094;2024-01-07T10:42:00;6.50;;;1.40;;
22754;SDS011;11544;42.020;23.094;2024-01-07T10:44:30;4.93;;;0.90;;
22754;SDS011;11544;42.020;23.094;2024-01-07T10:46:58;3.20;;;0.70;;
22754;SDS011;11544;42.020;23.094;2024-01-07T10:49:26;7.32;;;1.42;;
22754;SDS011;11544;42.020;23.094;2024-01-07T10:52:05;6.90;;;1.75;;
22754;SDS011;11544;42.020;23.094;2024-01-07T10:54:35;5.15;;;1.65;;
22754;SDS011;11544;42.020;23.094;2024-01-07T10:59:40;4.63;;;0.95;;
22754;SDS011;11544;42.020;23.094;2024-01-07T11:02:08;2.58;;;0.57;;
22754;SDS011;11544;42.020;23.094;2024-01-07T11:04:42;9.82;;;1.70;;
22754;SDS011;11544;42.020;23.094;2024-01-07T11:10:29;4.85;;;1.15;;
22754;SDS011;11544;42.020;23.094;2024-01-07T11:13:33;3.97;;;0.77;;
22754;SDS011;11544;42.020;23.094;2024-01-07T11:16:01;2.60;;;0.40;;
22754;SDS011;11544;42.020;23.094;2024-01-07T11:18:30;7.07;;;1.05;;
22754;SDS011;11544;42.020;23.094;2024-01-07T11:21:01;3.35;;;1.38;;
22754;SDS011;11544;42.020;23.094;2024-01-07T11:23:34;1.60;;;0.40;;
22754;SDS011;11544;42.020;23.094;2024-01-07T11:26:06;5.93;;;0.77;;
22754;SDS011;11544;42.020;23.094;2024-01-07T11:28:46;2.65;;;1.17;;
22754;SDS011;11544;42.020;23.094;2024-01-07T11:31:17;4.35;;;0.70;;
22754;SDS011;11544;42.020;23.094;2024-01-07T11:33:46;2.40;;;0.75;;
22754;SDS011;11544;42.020;23.094;2024-01-07T11:36:15;3.55;;;0.90;;
22754;SDS011;11544;42.020;23.094;2024-01-07T11:38:43;4.72;;;1.23;;
22754;SDS011;11544;42.020;23.094;2024-01-07T11:41:13;3.83;;;0.50;;
22754;SDS011;11544;42.020;23.094;2024-01-07T11:46:31;6.63;;;1.27;;
22754;SDS011;11544;42.020;23.094;2024-01-07T11:48:59;2.10;;;1.02;;
22754;SDS011;11544;42.020;23.094;2024-01-07T11:51:30;2.22;;;0.80;;
22754;SDS011;11544;42.020;23.094;2024-01-07T11:53:59;5.57;;;1.20;;
22754;SDS011;11544;42.020;23.094;2024-01-07T11:56:27;3.75;;;1.35;;
22754;SDS011;11544;42.020;23.094;2024-01-07T11:58:55;5.35;;;1.00;;
22754;SDS011;11544;42.020;23.094;2024-01-07T12:01:24;6.15;;;0.82;;
22754;SDS011;11544;42.020;23.094;2024-01-07T12:03:55;7.30;;;1.83;;
22754;SDS011;11544;42.020;23.094;2024-01-07T12:06:22;3.22;;;1.20;;
22754;SDS011;11544;42.020;23.094;2024-01-07T12:08:49;4.28;;;1.10;;
22754;SDS011;11544;42.020;23.094;2024-01-07T12:11:17;4.97;;;0.90;;
22754;SDS011;11544;42.020;23.094;2024-01-07T12:13:45;4.93;;;0.98;;
22754;SDS011;11544;42.020;23.094;2024-01-07T12:16:12;2.67;;;0.68;;
22754;SDS011;11544;42.020;23.094;2024-01-07T12:18:40;1.17;;;0.70;;
22754;SDS011;11544;42.020;23.094;2024-01-07T12:21:07;2.63;;;0.80;;
22754;SDS011;11544;42.020;23.094;2024-01-07T12:23:35;2.13;;;0.98;;
22754;SDS011;11544;42.020;23.094;2024-01-07T12:26:09;6.75;;;1.20;;
22754;SDS011;11544;42.020;23.094;2024-01-07T12:28:40;3.33;;;1.13;;
22754;SDS011;11544;42.020;23.094;2024-01-07T12:31:08;5.82;;;1.02;;
22754;SDS011;11544;42.020;23.094;2024-01-07T12:33:39;8.52;;;1.05;;
22754;SDS011;11544;42.020;23.094;2024-01-07T12:36:07;4.45;;;0.80;;
22754;SDS011;11544;42.020;23.094;2024-01-07T12:38:38;1.83;;;0.68;;
22754;SDS011;11544;42.020;23.094;2024-01-07T12:41:05;14.10;;;1.33;;
22754;SDS011;11544;42.020;23.094;2024-01-07T12:43:32;4.63;;;1.10;;
22754;SDS011;11544;42.020;23.094;2024-01-07T12:45:59;5.53;;;1.02;;
22754;SDS011;11544;42.020;23.094;2024-01-07T12:48:32;3.08;;;1.10;;
22754;SDS011;11544;42.020;23.094;2024-01-07T12:51:00;3.97;;;1.70;;
22754;SDS011;11544;42.020;23.094;2024-01-07T12:53:27;4.60;;;1.55;;
22754;SDS011;11544;42.020;23.094;2024-01-07T12:55:55;3.20;;;0.88;;
22754;SDS011;11544;42.020;23.094;2024-01-07T12:58:22;3.33;;;1.40;;
22754;SDS011;11544;42.020;23.094;2024-01-07T13:00:51;9.02;;;0.90;;
22754;SDS011;11544;42.020;23.094;2024-01-07T13:03:19;3.83;;;0.80;;
22754;SDS011;11544;42.020;23.094;2024-01-07T13:05:47;5.53;;;0.90;;
22754;SDS011;11544;42.020;23.094;2024-01-07T13:08:17;1.02;;;0.60;;
22754;SDS011;11544;42.020;23.094;2024-01-07T13:10:45;3.17;;;1.20;;
22754;SDS011;11544;42.020;23.094;2024-01-07T13:13:12;3.63;;;1.50;;
22754;SDS011;11544;42.020;23.094;2024-01-07T13:15:41;5.97;;;1.50;;
22754;SDS011;11544;42.020;23.094;2024-01-07T13:18:09;2.15;;;1.40;;
22754;SDS011;11544;42.020;23.094;2024-01-07T13:20:39;1.70;;;1.25;;
22754;SDS011;11544;42.020;23.094;2024-01-07T13:23:08;3.05;;;0.93;;
22754;SDS011;11544;42.020;23.094;2024-01-07T13:25:35;7.75;;;1.58;;
22754;SDS011;11544;42.020;23.094;2024-01-07T13:28:02;3.40;;;0.98;;
22754;SDS011;11544;42.020;23.094;2024-01-07T13:30:30;5.68;;;1.23;;
22754;SDS011;11544;42.020;23.094;2024-01-07T13:32:57;4.97;;;1.35;;
22754;SDS011;11544;42.020;23.094;2024-01-07T13:35:26;1.20;;;0.60;;
22754;SDS011;11544;42.020;23.094;2024-01-07T13:37:53;2.45;;;1.00;;
22754;SDS011;11544;42.020;23.094;2024-01-07T13:40:20;5.85;;;1.00;;
22754;SDS011;11544;42.020;23.094;2024-01-07T13:42:47;6.30;;;1.58;;
22754;SDS011;11544;42.020;23.094;2024-01-07T13:45:17;8.90;;;1.98;;
22754;SDS011;11544;42.020;23.094;2024-01-07T13:47:47;3.60;;;1.48;;
22754;SDS011;11544;42.020;23.094;2024-01-07T13:50:14;5.70;;;2.05;;
22754;SDS011;11544;42.020;23.094;2024-01-07T13:52:41;6.35;;;2.17;;
22754;SDS011;11544;42.020;23.094;2024-01-07T13:55:08;3.92;;;1.10;;
22754;SDS011;11544;42.020;23.094;2024-01-07T13:57:38;6.70;;;1.17;;
22754;SDS011;11544;42.020;23.094;2024-01-07T14:00:05;5.63;;;1.88;;
22754;SDS011;11544;42.020;23.094;2024-01-07T14:02:38;7.22;;;1.80;;
22754;SDS011;11544;42.020;23.094;2024-01-07T14:05:07;5.65;;;1.60;;
22754;SDS011;11544;42.020;23.094;2024-01-07T14:07:35;5.55;;;1.95;;
22754;SDS011;11544;42.020;23.094;2024-01-07T14:10:02;4.80;;;1.50;;
22754;SDS011;11544;42.020;23.094;2024-01-07T14:12:31;5.53;;;1.77;;
22754;SDS011;11544;42.020;23.094;2024-01-07T14:14:58;10.55;;;2.70;;
22754;SDS011;11544;42.020;23.094;2024-01-07T14:17:25;10.15;;;2.90;;
22754;SDS011;11544;42.020;23.094;2024-01-07T14:19:53;6.90;;;3.28;;
22754;SDS011;11544;42.020;23.094;2024-01-07T14:22:20;8.15;;;3.00;;
22754;SDS011;11544;42.020;23.094;2024-01-07T14:24:48;8.80;;;3.38;;
22754;SDS011;11544;42.020;23.094;2024-01-07T14:27:16;8.90;;;4.45;;
22754;SDS011;11544;42.020;23.094;2024-01-07T14:29:43;5.57;;;2.75;;
22754;SDS011;11544;42.020;23.094;2024-01-07T14:32:10;7.57;;;3.40;;
22754;SDS011;11544;42.020;23.094;2024-01-07T14:34:38;6.95;;;3.22;;
22754;SDS011;11544;42.020;23.094;2024-01-07T14:37:10;10.18;;;3.75;;
22754;SDS011;11544;42.020;23.094;2024-01-07T14:39:37;11.68;;;5.47;;
22754;SDS011;11544;42.020;23.094;2024-01-07T14:42:04;8.93;;;5.43;;
22754;SDS011;11544;42.020;23.094;2024-01-07T14:44:32;8.48;;;4.55;;
22754;SDS011;11544;42.020;23.094;2024-01-07T14:47:13;11.98;;;5.78;;